| Date | Time | Temp. (oF) | Dew Point (oF) | Rel. Hum. (%) | Press. (in.) | Wind Dir. | Wind Speed (mph) | Hourly Rainfall (in.) |
|
|---|---|---|---|---|---|---|---|---|---|
| 1 | 03/01 | 00:00 | 15 | 7 | 72 | 30.71 | S | 0 | 0.00 |
| 2 | 02/28 | 23:00 | 16 | 7 | 69 | 30.72 | ESE | 0 | 0.00 |
| 3 | 02/28 | 22:00 | 17 | 7 | 67 | 30.75 | S | 0 | 0.00 |
| 4 | 02/28 | 21:00 | 18 | 5 | 57 | 30.75 | SSW | 0 | 0.00 |
| 5 | 02/28 | 20:00 | 20 | 2 | 47 | 30.74 | SE | 0 | 0.00 |
| 6 | 02/28 | 19:00 | 22 | 0 | 39 | 30.73 | SSW | 0 | 0.00 |
| 7 | 02/28 | 18:00 | 24 | 0 | 34 | 30.71 | W | 0 | 0.00 |
| 8 | 02/28 | 17:00 | 26 | 0 | 32 | 30.70 | ENE | 2 | 0.00 |
| 9 | 02/28 | 16:00 | 26 | 2 | 36 | 30.70 | W | 4 | 0.00 |
| 10 | 02/28 | 15:00 | 25 | 1 | 36 | 30.73 | NNW | 3 | 0.00 |
| 11 | 02/28 | 14:00 | 25 | 3 | 39 | 30.75 | N | 4 | 0.00 |
| 12 | 02/28 | 13:00 | 23 | 0 | 36 | 30.79 | NNW | 1 | 0.00 |
| 13 | 02/28 | 12:00 | 22 | 3 | 44 | 30.83 | SW | 7 | 0.00 |
| 14 | 02/28 | 11:00 | 19 | 1 | 45 | 30.84 | SW | 0 | 0.00 |
| 15 | 02/28 | 10:00 | 18 | 1 | 48 | 30.83 | NNE | 4 | 0.00 |
| 16 | 02/28 | 09:00 | 15 | -1 | 47 | 30.83 | NNE | 7 | 0.00 |
| 17 | 02/28 | 08:00 | 13 | 0 | 57 | 30.81 | N | 6 | 0.00 |
| 18 | 02/28 | 07:00 | 11 | 0 | 60 | 30.79 | N | 4 | 0.00 |
| 19 | 02/28 | 06:00 | 12 | 0 | 59 | 30.78 | NW | 4 | 0.00 |
| 20 | 02/28 | 05:00 | 12 | 0 | 59 | 30.75 | NNW | 3 | 0.00 |
| 21 | 02/28 | 04:00 | 13 | 0 | 58 | 30.73 | WNW | 0 | 0.00 |
| 22 | 02/28 | 03:00 | 14 | 1 | 56 | 30.69 | WNW | 2 | 0.00 |
| 23 | 02/28 | 02:00 | 15 | 0 | 53 | 30.67 | WNW | 0 | 0.00 |
| 24 | 02/28 | 01:00 | 16 | 1 | 53 | 30.66 | WNW | 4 | 0.00 |